sensor_id;sensor_type;location;lat;lon;timestamp;temperature;humidity
14008;DHT22;61651;45.508;12.232;2023-04-07T00:01:06;11.80;99.70
14008;DHT22;61651;45.508;12.232;2023-04-07T00:04:08;11.80;99.70
14008;DHT22;61651;45.508;12.232;2023-04-07T00:07:10;11.70;99.60
14008;DHT22;61651;45.508;12.232;2023-04-07T00:10:12;11.80;99.50
14008;DHT22;61651;45.508;12.232;2023-04-07T00:13:14;11.70;99.50
14008;DHT22;61651;45.508;12.232;2023-04-07T00:16:17;11.60;99.50
14008;DHT22;61651;45.508;12.232;2023-04-07T00:19:19;11.70;99.40
14008;DHT22;61651;45.508;12.232;2023-04-07T00:22:21;11.70;99.30
14008;DHT22;61651;45.508;12.232;2023-04-07T00:25:23;11.60;99.10
14008;DHT22;61651;45.508;12.232;2023-04-07T00:28:25;11.60;99.00
14008;DHT22;61651;45.508;12.232;2023-04-07T00:31:28;11.60;99.00
14008;DHT22;61651;45.508;12.232;2023-04-07T00:34:30;11.60;98.90
14008;DHT22;61651;45.508;12.232;2023-04-07T00:37:32;11.50;98.80
14008;DHT22;61651;45.508;12.232;2023-04-07T00:40:34;11.50;98.80
14008;DHT22;61651;45.508;12.232;2023-04-07T00:43:36;11.50;98.80
14008;DHT22;61651;45.508;12.232;2023-04-07T00:46:40;11.40;98.90
14008;DHT22;61651;45.508;12.232;2023-04-07T00:49:42;11.40;99.00
14008;DHT22;61651;45.508;12.232;2023-04-07T00:52:44;11.30;99.00
14008;DHT22;61651;45.508;12.232;2023-04-07T00:55:46;11.30;99.20
14008;DHT22;61651;45.508;12.232;2023-04-07T00:58:48;11.20;99.30
14008;DHT22;61651;45.508;12.232;2023-04-07T01:01:59;11.20;99.40
14008;DHT22;61651;45.508;12.232;2023-04-07T01:05:08;11.20;99.50
14008;DHT22;61651;45.508;12.232;2023-04-07T01:08:15;11.20;99.50
14008;DHT22;61651;45.508;12.232;2023-04-07T01:11:22;11.10;99.60
14008;DHT22;61651;45.508;12.232;2023-04-07T01:14:30;11.00;99.70
14008;DHT22;61651;45.508;12.232;2023-04-07T01:17:36;11.00;99.90
14008;DHT22;61651;45.508;12.232;2023-04-07T01:20:39;11.00;99.90
14008;DHT22;61651;45.508;12.232;2023-04-07T01:24:03;10.90;99.90
14008;DHT22;61651;45.508;12.232;2023-04-07T01:27:16;10.90;99.90
14008;DHT22;61651;45.508;12.232;2023-04-07T01:30:22;10.90;99.90
14008;DHT22;61651;45.508;12.232;2023-04-07T01:33:27;10.80;99.90
14008;DHT22;61651;45.508;12.232;2023-04-07T01:36:32;10.80;99.90
14008;DHT22;61651;45.508;12.232;2023-04-07T01:39:35;10.80;99.90
14008;DHT22;61651;45.508;12.232;2023-04-07T01:42:38;10.70;99.90
14008;DHT22;61651;45.508;12.232;2023-04-07T01:45:42;10.70;99.90
14008;DHT22;61651;45.508;12.232;2023-04-07T01:48:45;10.70;99.90
14008;DHT22;61651;45.508;12.232;2023-04-07T01:51:48;10.70;99.90
14008;DHT22;61651;45.508;12.232;2023-04-07T01:54:51;10.70;99.90
14008;DHT22;61651;45.508;12.232;2023-04-07T01:57:53;10.60;99.90
14008;DHT22;61651;45.508;12.232;2023-04-07T02:00:57;10.50;99.90
14008;DHT22;61651;45.508;12.232;2023-04-07T02:04:04;10.50;99.90
14008;DHT22;61651;45.508;12.232;2023-04-07T02:07:09;10.50;99.90
14008;DHT22;61651;45.508;12.232;2023-04-07T02:10:16;10.50;99.90
14008;DHT22;61651;45.508;12.232;2023-04-07T02:13:19;10.50;99.90
14008;DHT22;61651;45.508;12.232;2023-04-07T02:16:24;10.40;99.90
14008;DHT22;61651;45.508;12.232;2023-04-07T02:19:26;10.50;99.90
14008;DHT22;61651;45.508;12.232;2023-04-07T02:22:30;10.40;99.90
14008;DHT22;61651;45.508;12.232;2023-04-07T02:25:32;10.40;99.90
14008;DHT22;61651;45.508;12.232;2023-04-07T02:28:37;10.30;99.90
14008;DHT22;61651;45.508;12.232;2023-04-07T02:31:40;10.30;99.90
14008;DHT22;61651;45.508;12.232;2023-04-07T02:34:42;10.30;99.90
14008;DHT22;61651;45.508;12.232;2023-04-07T02:37:45;10.30;99.90
14008;DHT22;61651;45.508;12.232;2023-04-07T02:40:47;10.20;99.90
14008;DHT22;61651;45.508;12.232;2023-04-07T02:43:49;10.20;99.90
14008;DHT22;61651;45.508;12.232;2023-04-07T02:46:52;10.20;99.90
14008;DHT22;61651;45.508;12.232;2023-04-07T02:49:54;10.20;99.90
14008;DHT22;61651;45.508;12.232;2023-04-07T02:52:56;10.10;99.90
14008;DHT22;61651;45.508;12.232;2023-04-07T02:55:58;10.00;99.90
14008;DHT22;61651;45.508;12.232;2023-04-07T02:59:00;10.10;99.90
14008;DHT22;61651;45.508;12.232;2023-04-07T03:02:03;10.10;99.90
14008;DHT22;61651;45.508;12.232;2023-04-07T03:05:05;10.10;99.90
14008;DHT22;61651;45.508;12.232;2023-04-07T03:08:07;10.10;99.90
14008;DHT22;61651;45.508;12.232;2023-04-07T03:11:09;10.00;99.90
14008;DHT22;61651;45.508;12.232;2023-04-07T03:14:11;10.00;99.90
14008;DHT22;61651;45.508;12.232;2023-04-07T03:17:15;10.00;99.90
14008;DHT22;61651;45.508;12.232;2023-04-07T03:20:17;9.90;99.90
14008;DHT22;61651;45.508;12.232;2023-04-07T03:23:19;9.90;99.90
14008;DHT22;61651;45.508;12.232;2023-04-07T03:26:21;9.90;99.90
14008;DHT22;61651;45.508;12.232;2023-04-07T03:29:23;9.70;99.90
14008;DHT22;61651;45.508;12.232;2023-04-07T03:32:26;9.70;99.90
14008;DHT22;61651;45.508;12.232;2023-04-07T03:35:28;9.70;99.90
14008;DHT22;61651;45.508;12.232;2023-04-07T03:38:30;9.70;99.90
14008;DHT22;61651;45.508;12.232;2023-04-07T03:41:32;9.70;99.90
14008;DHT22;61651;45.508;12.232;2023-04-07T03:44:34;9.70;99.90
14008;DHT22;61651;45.508;12.232;2023-04-07T03:47:38;9.60;99.90
14008;DHT22;61651;45.508;12.232;2023-04-07T03:50:40;9.70;99.90
14008;DHT22;61651;45.508;12.232;2023-04-07T03:53:42;9.70;99.90
14008;DHT22;61651;45.508;12.232;2023-04-07T03:56:44;9.70;99.90
14008;DHT22;61651;45.508;12.232;2023-04-07T03:59:46;9.70;99.90
14008;DHT22;61651;45.508;12.232;2023-04-07T04:02:52;9.60;99.90
14008;DHT22;61651;45.508;12.232;2023-04-07T04:05:54;9.50;99.90
14008;DHT22;61651;45.508;12.232;2023-04-07T04:08:56;9.50;99.90
14008;DHT22;61651;45.508;12.232;2023-04-07T04:11:58;9.60;99.90
14008;DHT22;61651;45.508;12.232;2023-04-07T04:15:00;9.60;99.90
14008;DHT22;61651;45.508;12.232;2023-04-07T04:18:04;9.60;99.90
14008;DHT22;61651;45.508;12.232;2023-04-07T04:21:06;9.60;99.90
14008;DHT22;61651;45.508;12.232;2023-04-07T04:24:08;9.60;99.90
14008;DHT22;61651;45.508;12.232;2023-04-07T04:27:10;9.50;99.90
14008;DHT22;61651;45.508;12.232;2023-04-07T04:30:13;9.40;99.90
14008;DHT22;61651;45.508;12.232;2023-04-07T04:33:16;9.40;99.90
14008;DHT22;61651;45.508;12.232;2023-04-07T04:36:18;9.40;99.90
14008;DHT22;61651;45.508;12.232;2023-04-07T04:39:20;9.40;99.90
14008;DHT22;61651;45.508;12.232;2023-04-07T04:42:22;9.50;99.90
14008;DHT22;61651;45.508;12.232;2023-04-07T04:45:25;9.50;99.90
14008;DHT22;61651;45.508;12.232;2023-04-07T04:48:29;9.40;99.90
14008;DHT22;61651;45.508;12.232;2023-04-07T04:51:31;9.40;99.90
14008;DHT22;61651;45.508;12.232;2023-04-07T04:54:33;9.40;99.90
14008;DHT22;61651;45.508;12.232;2023-04-07T04:57:35;9.40;99.90
14008;DHT22;61651;45.508;12.232;2023-04-07T05:00:36;9.40;99.90
14008;DHT22;61651;45.508;12.232;2023-04-07T05:03:40;9.40;99.90
14008;DHT22;61651;45.508;12.232;2023-04-07T05:06:42;9.40;99.90
14008;DHT22;61651;45.508;12.232;2023-04-07T05:09:43;9.40;99.90
14008;DHT22;61651;45.508;12.232;2023-04-07T05:12:45;9.40;99.90
14008;DHT22;61651;45.508;12.232;2023-04-07T05:15:47;9.40;99.90
14008;DHT22;61651;45.508;12.232;2023-04-07T05:18:51;9.40;99.90
14008;DHT22;61651;45.508;12.232;2023-04-07T05:21:53;9.40;99.90
14008;DHT22;61651;45.508;12.232;2023-04-07T05:24:55;9.40;99.90
14008;DHT22;61651;45.508;12.232;2023-04-07T05:27:57;9.40;99.90
14008;DHT22;61651;45.508;12.232;2023-04-07T05:30:59;9.40;99.90
14008;DHT22;61651;45.508;12.232;2023-04-07T05:34:03;9.40;99.90
14008;DHT22;61651;45.508;12.232;2023-04-07T05:37:05;9.50;99.90
14008;DHT22;61651;45.508;12.232;2023-04-07T05:40:08;9.60;99.90
14008;DHT22;61651;45.508;12.232;2023-04-07T05:43:10;9.70;99.90
14008;DHT22;61651;45.508;12.232;2023-04-07T05:46:12;9.70;99.90
14008;DHT22;61651;45.508;12.232;2023-04-07T05:49:15;9.80;99.90
14008;DHT22;61651;45.508;12.232;2023-04-07T05:52:17;9.90;99.90
14008;DHT22;61651;45.508;12.232;2023-04-07T05:55:19;10.00;99.90
14008;DHT22;61651;45.508;12.232;2023-04-07T05:58:21;10.10;99.90
14008;DHT22;61651;45.508;12.232;2023-04-07T06:01:23;10.20;99.90
14008;DHT22;61651;45.508;12.232;2023-04-07T06:04:26;10.30;99.90
14008;DHT22;61651;45.508;12.232;2023-04-07T06:07:28;10.30;99.90
14008;DHT22;61651;45.508;12.232;2023-04-07T06:10:30;10.40;99.90
14008;DHT22;61651;45.508;12.232;2023-04-07T06:13:32;10.50;99.90
14008;DHT22;61651;45.508;12.232;2023-04-07T06:16:34;10.50;99.90
14008;DHT22;61651;45.508;12.232;2023-04-07T06:19:37;10.60;99.90
14008;DHT22;61651;45.508;12.232;2023-04-07T06:22:39;10.50;99.90
14008;DHT22;61651;45.508;12.232;2023-04-07T06:25:41;10.60;99.90
14008;DHT22;61651;45.508;12.232;2023-04-07T06:28:44;10.80;99.90
14008;DHT22;61651;45.508;12.232;2023-04-07T06:31:46;10.90;99.90
14008;DHT22;61651;45.508;12.232;2023-04-07T06:34:49;11.00;99.90
14008;DHT22;61651;45.508;12.232;2023-04-07T06:37:51;11.10;99.90
14008;DHT22;61651;45.508;12.232;2023-04-07T06:40:53;11.20;99.90
14008;DHT22;61651;45.508;12.232;2023-04-07T06:43:55;11.30;99.90
14008;DHT22;61651;45.508;12.232;2023-04-07T06:46:57;11.40;99.90
14008;DHT22;61651;45.508;12.232;2023-04-07T06:50:00;11.50;99.90
14008;DHT22;61651;45.508;12.232;2023-04-07T06:53:02;11.50;99.90
14008;DHT22;61651;45.508;12.232;2023-04-07T06:56:06;11.60;99.90
14008;DHT22;61651;45.508;12.232;2023-04-07T06:59:08;11.70;99.90
14008;DHT22;61651;45.508;12.232;2023-04-07T07:02:10;11.80;99.90
14008;DHT22;61651;45.508;12.232;2023-04-07T07:05:14;11.80;99.90
14008;DHT22;61651;45.508;12.232;2023-04-07T07:08:16;11.90;99.90
14008;DHT22;61651;45.508;12.232;2023-04-07T07:11:18;12.00;99.90
14008;DHT22;61651;45.508;12.232;2023-04-07T07:14:20;12.00;99.90
14008;DHT22;61651;45.508;12.232;2023-04-07T07:17:22;12.00;99.90
14008;DHT22;61651;45.508;12.232;2023-04-07T07:20:25;12.00;99.90
14008;DHT22;61651;45.508;12.232;2023-04-07T07:23:27;12.00;99.90
14008;DHT22;61651;45.508;12.232;2023-04-07T07:26:29;12.10;99.90
14008;DHT22;61651;45.508;12.232;2023-04-07T07:29:31;12.20;99.90
14008;DHT22;61651;45.508;12.232;2023-04-07T07:32:33;12.30;99.90
14008;DHT22;61651;45.508;12.232;2023-04-07T07:35:37;12.40;99.90
14008;DHT22;61651;45.508;12.232;2023-04-07T07:38:39;12.40;99.90
14008;DHT22;61651;45.508;12.232;2023-04-07T07:41:41;12.50;99.90
14008;DHT22;61651;45.508;12.232;2023-04-07T07:44:43;12.60;99.90
14008;DHT22;61651;45.508;12.232;2023-04-07T07:47:45;12.70;99.90
14008;DHT22;61651;45.508;12.232;2023-04-07T07:50:49;12.90;99.90
14008;DHT22;61651;45.508;12.232;2023-04-07T07:53:51;13.00;99.90
14008;DHT22;61651;45.508;12.232;2023-04-07T07:56:54;13.10;99.90
14008;DHT22;61651;45.508;12.232;2023-04-07T07:59:56;13.10;99.90
14008;DHT22;61651;45.508;12.232;2023-04-07T08:02:58;13.20;99.90
14008;DHT22;61651;45.508;12.232;2023-04-07T08:06:02;13.30;99.90
14008;DHT22;61651;45.508;12.232;2023-04-07T08:09:04;13.40;99.90
14008;DHT22;61651;45.508;12.232;2023-04-07T08:12:06;13.50;99.90
14008;DHT22;61651;45.508;12.232;2023-04-07T08:15:09;13.60;99.90
14008;DHT22;61651;45.508;12.232;2023-04-07T08:18:11;13.60;99.90
14008;DHT22;61651;45.508;12.232;2023-04-07T08:21:14;13.70;99.90
14008;DHT22;61651;45.508;12.232;2023-04-07T08:24:16;13.80;99.90
14008;DHT22;61651;45.508;12.232;2023-04-07T08:27:18;13.80;99.90
14008;DHT22;61651;45.508;12.232;2023-04-07T08:30:20;14.00;99.90
14008;DHT22;61651;45.508;12.232;2023-04-07T08:33:22;14.00;99.90
14008;DHT22;61651;45.508;12.232;2023-04-07T08:36:26;14.10;99.90
14008;DHT22;61651;45.508;12.232;2023-04-07T08:39:29;14.20;99.90
14008;DHT22;61651;45.508;12.232;2023-04-07T08:42:33;14.30;99.90
14008;DHT22;61651;45.508;12.232;2023-04-07T08:45:38;14.40;99.90
14008;DHT22;61651;45.508;12.232;2023-04-07T08:48:43;14.40;99.90
14008;DHT22;61651;45.508;12.232;2023-04-07T08:51:47;14.50;99.50
14008;DHT22;61651;45.508;12.232;2023-04-07T08:54:50;14.60;99.80
14008;DHT22;61651;45.508;12.232;2023-04-07T08:57:53;14.60;99.90
14008;DHT22;61651;45.508;12.232;2023-04-07T09:00:55;14.80;99.90
14008;DHT22;61651;45.508;12.232;2023-04-07T09:03:58;14.90;99.60
14008;DHT22;61651;45.508;12.232;2023-04-07T09:07:02;15.00;98.20
14008;DHT22;61651;45.508;12.232;2023-04-07T09:10:05;15.10;97.10
14008;DHT22;61651;45.508;12.232;2023-04-07T09:13:07;15.30;97.00
14008;DHT22;61651;45.508;12.232;2023-04-07T09:16:09;15.40;96.80
14008;DHT22;61651;45.508;12.232;2023-04-07T09:19:13;15.50;97.20
14008;DHT22;61651;45.508;12.232;2023-04-07T09:22:33;15.70;95.50
14008;DHT22;61651;45.508;12.232;2023-04-07T09:25:35;15.90;94.90
14008;DHT22;61651;45.508;12.232;2023-04-07T09:28:40;15.80;94.50
14008;DHT22;61651;45.508;12.232;2023-04-07T09:31:44;16.00;95.40
14008;DHT22;61651;45.508;12.232;2023-04-07T09:34:57;16.20;93.40
14008;DHT22;61651;45.508;12.232;2023-04-07T09:38:06;16.00;92.40
14008;DHT22;61651;45.508;12.232;2023-04-07T09:41:09;16.10;93.70
14008;DHT22;61651;45.508;12.232;2023-04-07T09:44:12;16.40;92.80
14008;DHT22;61651;45.508;12.232;2023-04-07T09:47:14;16.50;91.90
14008;DHT22;61651;45.508;12.232;2023-04-07T09:50:30;16.70;92.00
14008;DHT22;61651;45.508;12.232;2023-04-07T09:53:43;16.80;87.40
14008;DHT22;61651;45.508;12.232;2023-04-07T09:56:45;16.80;87.20
14008;DHT22;61651;45.508;12.232;2023-04-07T09:59:47;16.90;86.10
14008;DHT22;61651;45.508;12.232;2023-04-07T10:02:51;16.70;82.80
14008;DHT22;61651;45.508;12.232;2023-04-07T10:05:53;16.50;85.50
14008;DHT22;61651;45.508;12.232;2023-04-07T10:08:57;16.50;83.80
14008;DHT22;61651;45.508;12.232;2023-04-07T10:11:59;16.50;87.80
14008;DHT22;61651;45.508;12.232;2023-04-07T10:15:01;16.60;83.50
14008;DHT22;61651;45.508;12.232;2023-04-07T10:18:06;16.80;85.00
14008;DHT22;61651;45.508;12.232;2023-04-07T10:21:09;16.90;85.40
14008;DHT22;61651;45.508;12.232;2023-04-07T10:24:23;16.90;86.60
14008;DHT22;61651;45.508;12.232;2023-04-07T10:27:32;17.10;86.80
14008;DHT22;61651;45.508;12.232;2023-04-07T10:30:35;17.30;87.70
14008;DHT22;61651;45.508;12.232;2023-04-07T10:33:48;17.50;85.10
14008;DHT22;61651;45.508;12.232;2023-04-07T10:37:11;17.50;89.00
14008;DHT22;61651;45.508;12.232;2023-04-07T10:40:33;17.60;89.90
14008;DHT22;61651;45.508;12.232;2023-04-07T10:43:39;17.70;88.90
14008;DHT22;61651;45.508;12.232;2023-04-07T10:47:01;17.80;87.50
14008;DHT22;61651;45.508;12.232;2023-04-07T10:50:15;17.90;89.50
14008;DHT22;61651;45.508;12.232;2023-04-07T10:53:18;18.10;89.70
14008;DHT22;61651;45.508;12.232;2023-04-07T10:56:22;18.20;88.00
14008;DHT22;61651;45.508;12.232;2023-04-07T10:59:25;18.40;83.30
14008;DHT22;61651;45.508;12.232;2023-04-07T11:02:33;18.50;83.70
14008;DHT22;61651;45.508;12.232;2023-04-07T11:05:35;18.50;82.30
14008;DHT22;61651;45.508;12.232;2023-04-07T11:08:39;18.50;82.10
14008;DHT22;61651;45.508;12.232;2023-04-07T11:11:42;18.60;77.50
14008;DHT22;61651;45.508;12.232;2023-04-07T11:14:47;18.60;79.40
14008;DHT22;61651;45.508;12.232;2023-04-07T11:18:08;18.70;81.60
14008;DHT22;61651;45.508;12.232;2023-04-07T11:21:10;18.90;81.00
14008;DHT22;61651;45.508;12.232;2023-04-07T11:24:33;19.00;82.50
14008;DHT22;61651;45.508;12.232;2023-04-07T11:27:38;19.10;85.20
14008;DHT22;61651;45.508;12.232;2023-04-07T11:30:50;19.20;81.90
14008;DHT22;61651;45.508;12.232;2023-04-07T11:33:54;19.30;78.40
14008;DHT22;61651;45.508;12.232;2023-04-07T11:36:56;19.40;75.20
14008;DHT22;61651;45.508;12.232;2023-04-07T11:40:01;19.40;74.10
14008;DHT22;61651;45.508;12.232;2023-04-07T11:43:16;19.50;70.00
14008;DHT22;61651;45.508;12.232;2023-04-07T11:46:18;19.60;71.70
14008;DHT22;61651;45.508;12.232;2023-04-07T11:49:21;19.70;71.80
14008;DHT22;61651;45.508;12.232;2023-04-07T11:52:24;19.90;67.70
14008;DHT22;61651;45.508;12.232;2023-04-07T11:55:26;19.90;68.10
14008;DHT22;61651;45.508;12.232;2023-04-07T11:58:31;20.00;68.40
14008;DHT22;61651;45.508;12.232;2023-04-07T12:01:38;20.10;67.50
14008;DHT22;61651;45.508;12.232;2023-04-07T12:04:55;20.20;62.00
14008;DHT22;61651;45.508;12.232;2023-04-07T12:07:57;20.20;64.30
14008;DHT22;61651;45.508;12.232;2023-04-07T12:11:02;20.30;65.40
14008;DHT22;61651;45.508;12.232;2023-04-07T12:14:06;20.30;64.20
14008;DHT22;61651;45.508;12.232;2023-04-07T12:17:19;20.30;60.60
14008;DHT22;61651;45.508;12.232;2023-04-07T12:20:21;20.30;58.20
14008;DHT22;61651;45.508;12.232;2023-04-07T12:23:23;20.20;59.00
14008;DHT22;61651;45.508;12.232;2023-04-07T12:26:25;20.10;60.00
14008;DHT22;61651;45.508;12.232;2023-04-07T12:29:28;20.20;58.70
14008;DHT22;61651;45.508;12.232;2023-04-07T12:32:30;20.30;60.50
14008;DHT22;61651;45.508;12.232;2023-04-07T12:35:33;20.20;59.80
14008;DHT22;61651;45.508;12.232;2023-04-07T12:38:35;20.10;62.60
14008;DHT22;61651;45.508;12.232;2023-04-07T12:41:37;20.00;62.20
14008;DHT22;61651;45.508;12.232;2023-04-07T12:44:40;20.00;61.30
14008;DHT22;61651;45.508;12.232;2023-04-07T12:47:43;20.00;60.10
14008;DHT22;61651;45.508;12.232;2023-04-07T12:50:46;20.00;62.40
14008;DHT22;61651;45.508;12.232;2023-04-07T12:53:48;20.10;59.90
14008;DHT22;61651;45.508;12.232;2023-04-07T12:56:50;20.30;61.50
14008;DHT22;61651;45.508;12.232;2023-04-07T12:59:54;20.40;62.90
14008;DHT22;61651;45.508;12.232;2023-04-07T13:02:56;20.50;63.50
14008;DHT22;61651;45.508;12.232;2023-04-07T13:05:58;20.50;63.00
14008;DHT22;61651;45.508;12.232;2023-04-07T13:09:01;20.60;57.40
14008;DHT22;61651;45.508;12.232;2023-04-07T13:12:03;20.60;58.10
14008;DHT22;61651;45.508;12.232;2023-04-07T13:15:07;20.60;57.20
14008;DHT22;61651;45.508;12.232;2023-04-07T13:18:09;20.40;58.10
14008;DHT22;61651;45.508;12.232;2023-04-07T13:21:11;20.40;57.50
14008;DHT22;61651;45.508;12.232;2023-04-07T13:24:13;20.20;56.90
14008;DHT22;61651;45.508;12.232;2023-04-07T13:27:15;20.20;56.80
14008;DHT22;61651;45.508;12.232;2023-04-07T13:30:19;20.30;56.70
14008;DHT22;61651;45.508;12.232;2023-04-07T13:33:21;20.30;57.80
14008;DHT22;61651;45.508;12.232;2023-04-07T13:36:24;20.40;58.60
14008;DHT22;61651;45.508;12.232;2023-04-07T13:39:27;20.40;55.90
14008;DHT22;61651;45.508;12.232;2023-04-07T13:42:29;20.50;56.60
14008;DHT22;61651;45.508;12.232;2023-04-07T13:45:32;20.60;57.90
14008;DHT22;61651;45.508;12.232;2023-04-07T13:48:36;20.60;56.90
14008;DHT22;61651;45.508;12.232;2023-04-07T13:51:38;20.30;55.00
14008;DHT22;61651;45.508;12.232;2023-04-07T13:54:41;20.10;56.50
14008;DHT22;61651;45.508;12.232;2023-04-07T13:57:43;20.00;59.90
14008;DHT22;61651;45.508;12.232;2023-04-07T14:00:46;19.70;60.00
14008;DHT22;61651;45.508;12.232;2023-04-07T14:03:48;19.60;62.30
14008;DHT22;61651;45.508;12.232;2023-04-07T14:06:50;19.50;64.00
14008;DHT22;61651;45.508;12.232;2023-04-07T14:09:52;19.40;61.90
14008;DHT22;61651;45.508;12.232;2023-04-07T14:12:55;19.30;65.80
14008;DHT22;61651;45.508;12.232;2023-04-07T14:15:58;19.00;66.80
14008;DHT22;61651;45.508;12.232;2023-04-07T14:19:00;19.10;69.20
14008;DHT22;61651;45.508;12.232;2023-04-07T14:22:02;19.20;69.00
14008;DHT22;61651;45.508;12.232;2023-04-07T14:25:06;19.20;70.60
14008;DHT22;61651;45.508;12.232;2023-04-07T14:28:08;19.30;69.30
14008;DHT22;61651;45.508;12.232;2023-04-07T14:31:15;19.40;71.40
14008;DHT22;61651;45.508;12.232;2023-04-07T14:34:17;19.50;69.30
14008;DHT22;61651;45.508;12.232;2023-04-07T14:37:20;19.70;70.00
14008;DHT22;61651;45.508;12.232;2023-04-07T14:40:25;19.90;71.60
14008;DHT22;61651;45.508;12.232;2023-04-07T14:43:27;20.10;71.70
14008;DHT22;61651;45.508;12.232;2023-04-07T14:46:31;20.20;71.20
14008;DHT22;61651;45.508;12.232;2023-04-07T14:49:33;20.20;70.70
14008;DHT22;61651;45.508;12.232;2023-04-07T14:52:35;20.30;71.20
14008;DHT22;61651;45.508;12.232;2023-04-07T14:55:37;20.30;69.40
14008;DHT22;61651;45.508;12.232;2023-04-07T14:58:41;20.30;68.80
14008;DHT22;61651;45.508;12.232;2023-04-07T15:01:44;20.40;69.50
14008;DHT22;61651;45.508;12.232;2023-04-07T15:04:46;20.40;67.70
14008;DHT22;61651;45.508;12.232;2023-04-07T15:07:48;20.40;68.40
14008;DHT22;61651;45.508;12.232;2023-04-07T15:10:51;20.40;68.60
14008;DHT22;61651;45.508;12.232;2023-04-07T15:13:53;20.40;67.60
14008;DHT22;61651;45.508;12.232;2023-04-07T15:16:57;20.20;67.10
14008;DHT22;61651;45.508;12.232;2023-04-07T15:19:59;19.90;68.20
14008;DHT22;61651;45.508;12.232;2023-04-07T15:23:01;19.10;70.20
14008;DHT22;61651;45.508;12.232;2023-04-07T15:26:03;19.10;70.60
14008;DHT22;61651;45.508;12.232;2023-04-07T15:29:05;19.10;69.40
14008;DHT22;61651;45.508;12.232;2023-04-07T15:32:08;19.10;71.00
14008;DHT22;61651;45.508;12.232;2023-04-07T15:35:10;19.20;72.80
14008;DHT22;61651;45.508;12.232;2023-04-07T15:38:12;19.10;71.10
14008;DHT22;61651;45.508;12.232;2023-04-07T15:41:15;19.00;70.10
14008;DHT22;61651;45.508;12.232;2023-04-07T15:44:17;18.90;72.10
14008;DHT22;61651;45.508;12.232;2023-04-07T15:47:21;18.90;75.00
14008;DHT22;61651;45.508;12.232;2023-04-07T15:50:22;18.90;75.10
14008;DHT22;61651;45.508;12.232;2023-04-07T15:53:25;18.80;76.80
14008;DHT22;61651;45.508;12.232;2023-04-07T15:56:27;18.70;76.30
14008;DHT22;61651;45.508;12.232;2023-04-07T15:59:29;18.70;76.00
14008;DHT22;61651;45.508;12.232;2023-04-07T16:02:32;18.60;78.00
14008;DHT22;61651;45.508;12.232;2023-04-07T16:05:34;18.50;79.70
14008;DHT22;61651;45.508;12.232;2023-04-07T16:08:36;18.50;81.00
14008;DHT22;61651;45.508;12.232;2023-04-07T16:11:38;18.40;81.80
14008;DHT22;61651;45.508;12.232;2023-04-07T16:14:40;18.30;83.10
14008;DHT22;61651;45.508;12.232;2023-04-07T16:17:46;18.20;83.60
14008;DHT22;61651;45.508;12.232;2023-04-07T16:20:48;18.20;84.40
14008;DHT22;61651;45.508;12.232;2023-04-07T16:23:50;18.20;85.10
14008;DHT22;61651;45.508;12.232;2023-04-07T16:26:51;18.10;85.40
14008;DHT22;61651;45.508;12.232;2023-04-07T16:29:55;18.00;86.20
14008;DHT22;61651;45.508;12.232;2023-04-07T16:32:58;18.00;86.10
14008;DHT22;61651;45.508;12.232;2023-04-07T16:36:01;17.90;86.00
14008;DHT22;61651;45.508;12.232;2023-04-07T16:39:03;17.80;86.70
14008;DHT22;61651;45.508;12.232;2023-04-07T16:42:05;17.70;86.80
14008;DHT22;61651;45.508;12.232;2023-04-07T16:45:07;17.50;88.00
14008;DHT22;61651;45.508;12.232;2023-04-07T16:48:11;17.40;89.20
14008;DHT22;61651;45.508;12.232;2023-04-07T16:51:15;17.10;89.20
14008;DHT22;61651;45.508;12.232;2023-04-07T16:54:17;17.20;89.60
14008;DHT22;61651;45.508;12.232;2023-04-07T16:57:19;17.10;88.80
14008;DHT22;61651;45.508;12.232;2023-04-07T17:00:21;17.00;88.90
14008;DHT22;61651;45.508;12.232;2023-04-07T17:03:24;16.80;90.10
14008;DHT22;61651;45.508;12.232;2023-04-07T17:06:26;16.60;90.40
14008;DHT22;61651;45.508;12.232;2023-04-07T17:09:28;16.70;90.80
14008;DHT22;61651;45.508;12.232;2023-04-07T17:12:30;16.70;90.60
14008;DHT22;61651;45.508;12.232;2023-04-07T17:15:34;16.80;90.60
14008;DHT22;61651;45.508;12.232;2023-04-07T17:18:38;16.80;91.30
14008;DHT22;61651;45.508;12.232;2023-04-07T17:21:40;16.80;91.30
14008;DHT22;61651;45.508;12.232;2023-04-07T17:24:42;16.80;91.70
14008;DHT22;61651;45.508;12.232;2023-04-07T17:27:45;16.80;91.50
14008;DHT22;61651;45.508;12.232;2023-04-07T17:30:47;16.70;91.40
14008;DHT22;61651;45.508;12.232;2023-04-07T17:33:51;16.60;91.80
14008;DHT22;61651;45.508;12.232;2023-04-07T17:36:53;16.60;92.50
14008;DHT22;61651;45.508;12.232;2023-04-07T17:39:55;16.50;92.70
14008;DHT22;61651;45.508;12.232;2023-04-07T17:42:57;16.60;92.80
14008;DHT22;61651;45.508;12.232;2023-04-07T17:46:00;16.50;93.10
14008;DHT22;61651;45.508;12.232;2023-04-07T17:49:04;16.50;93.40
14008;DHT22;61651;45.508;12.232;2023-04-07T17:52:06;16.40;93.50
14008;DHT22;61651;45.508;12.232;2023-04-07T17:55:09;16.40;93.70
14008;DHT22;61651;45.508;12.232;2023-04-07T17:58:11;16.40;93.70
14008;DHT22;61651;45.508;12.232;2023-04-07T18:01:14;16.40;93.80
14008;DHT22;61651;45.508;12.232;2023-04-07T18:04:17;16.30;93.80
14008;DHT22;61651;45.508;12.232;2023-04-07T18:07:19;16.20;93.80
14008;DHT22;61651;45.508;12.232;2023-04-07T18:10:22;16.20;93.90
14008;DHT22;61651;45.508;12.232;2023-04-07T18:13:24;16.10;94.10
14008;DHT22;61651;45.508;12.232;2023-04-07T18:16:26;16.00;94.20
14008;DHT22;61651;45.508;12.232;2023-04-07T18:19:29;16.10;94.40
14008;DHT22;61651;45.508;12.232;2023-04-07T18:22:32;16.10;94.50
14008;DHT22;61651;45.508;12.232;2023-04-07T18:25:34;16.00;94.60
14008;DHT22;61651;45.508;12.232;2023-04-07T18:28:36;16.00;94.70
14008;DHT22;61651;45.508;12.232;2023-04-07T18:31:38;16.00;94.80
14008;DHT22;61651;45.508;12.232;2023-04-07T18:34:45;16.00;95.00
14008;DHT22;61651;45.508;12.232;2023-04-07T18:37:47;16.00;95.30
14008;DHT22;61651;45.508;12.232;2023-04-07T18:40:49;16.00;95.40
14008;DHT22;61651;45.508;12.232;2023-04-07T18:43:51;16.00;95.50
14008;DHT22;61651;45.508;12.232;2023-04-07T18:46:53;15.90;95.60
14008;DHT22;61651;45.508;12.232;2023-04-07T18:49:56;15.80;95.60
14008;DHT22;61651;45.508;12.232;2023-04-07T18:52:58;15.80;95.80
14008;DHT22;61651;45.508;12.232;2023-04-07T18:56:01;15.80;96.00
14008;DHT22;61651;45.508;12.232;2023-04-07T18:59:03;15.70;96.00
14008;DHT22;61651;45.508;12.232;2023-04-07T19:02:06;15.70;96.30